createdAt,value
2019-01-17T00:00:59.973Z,-0.58
2019-01-17T00:02:08.026Z,-0.49
2019-01-17T00:03:16.063Z,-0.49
2019-01-17T00:04:24.128Z,-0.46
2019-01-17T00:05:32.173Z,-0.40
2019-01-17T00:06:40.224Z,-0.37
2019-01-17T00:07:48.281Z,-0.36
2019-01-17T00:08:56.345Z,-0.43
2019-01-17T00:10:04.394Z,-0.31
2019-01-17T00:11:12.438Z,-0.36
2019-01-17T00:12:20.500Z,-0.29
2019-01-17T00:13:28.538Z,-0.34
2019-01-17T00:14:36.587Z,-0.29
2019-01-17T00:15:44.648Z,-0.29
2019-01-17T00:16:52.696Z,-0.28
2019-01-17T00:18:00.725Z,-0.26
2019-01-17T00:19:08.807Z,-0.23
2019-01-17T00:20:16.856Z,-0.14
2019-01-17T00:21:24.895Z,-0.18
2019-01-17T00:22:32.958Z,-0.18
2019-01-17T00:23:40.998Z,-0.10
2019-01-17T00:24:49.069Z,-0.11
2019-01-17T00:25:57.104Z,-0.11
2019-01-17T00:27:05.157Z,-0.08
2019-01-17T00:28:13.224Z,-0.14
2019-01-17T00:29:21.256Z,-0.10
2019-01-17T00:30:29.325Z,-0.08
2019-01-17T00:31:37.372Z,-0.15
2019-01-17T00:32:45.424Z,-0.11
2019-01-17T00:33:53.467Z,-0.10
2019-01-17T00:35:01.537Z,-0.22
2019-01-17T00:36:09.580Z,-0.16
2019-01-17T00:37:17.626Z,-0.16
2019-01-17T00:38:25.676Z,-0.22
2019-01-17T00:39:33.731Z,-0.29
2019-01-17T00:40:41.781Z,-0.23
2019-01-17T00:41:49.821Z,-0.18
2019-01-17T00:42:57.910Z,-0.36
2019-01-17T00:44:05.953Z,-0.36
2019-01-17T00:45:13.996Z,-0.36
2019-01-17T00:46:22.052Z,-0.44
2019-01-17T00:47:30.111Z,-0.43
2019-01-17T00:48:38.143Z,-0.40
2019-01-17T00:49:46.214Z,-0.39
2019-01-17T00:50:54.252Z,-0.39
2019-01-17T00:52:02.310Z,-0.46
2019-01-17T00:53:10.363Z,-0.49
2019-01-17T00:54:18.428Z,-0.47
2019-01-17T00:55:26.925Z,-0.40
2019-01-17T00:56:34.864Z,-0.36
2019-01-17T00:57:43.016Z,-0.39
2019-01-17T00:58:50.703Z,-0.36
2019-01-17T00:59:58.808Z,-0.47
2019-01-17T01:01:07.003Z,-0.40
2019-01-17T01:02:14.771Z,-0.43
2019-01-17T01:03:22.837Z,-0.42
2019-01-17T01:04:30.886Z,-0.43
2019-01-17T01:05:39.493Z,-0.42
2019-01-17T01:06:46.992Z,-0.47
2019-01-17T01:07:55.028Z,-0.44
2019-01-17T01:09:03.106Z,-0.37
2019-01-17T01:10:11.119Z,-0.40
2019-01-17T01:11:19.211Z,-0.42
2019-01-17T01:12:27.288Z,-0.42
2019-01-17T01:13:35.304Z,-0.36
2019-01-17T01:14:43.403Z,-0.40
2019-01-17T01:15:51.389Z,-0.31
2019-01-17T01:16:59.465Z,-0.31
2019-01-17T01:18:07.512Z,-0.29
2019-01-17T01:19:15.585Z,-0.26
2019-01-17T01:20:23.613Z,-0.28
2019-01-17T01:21:31.733Z,-0.29
2019-01-17T01:22:39.718Z,-0.33
2019-01-17T01:23:47.806Z,-0.21
2019-01-17T01:24:55.802Z,-0.31
2019-01-17T01:26:03.908Z,-0.31
2019-01-17T01:27:11.917Z,-0.31
2019-01-17T01:28:19.984Z,-0.28
2019-01-17T01:29:28.042Z,-0.29
2019-01-17T01:30:36.096Z,-0.29
2019-01-17T01:31:44.150Z,-0.29
2019-01-17T01:32:52.247Z,-0.33
2019-01-17T01:34:00.238Z,-0.29
2019-01-17T01:35:08.364Z,-0.37
2019-01-17T01:36:16.358Z,-0.33
2019-01-17T01:37:24.402Z,-0.37
2019-01-17T01:38:32.442Z,-0.40
2019-01-17T01:39:40.481Z,-0.36
2019-01-17T01:40:48.557Z,-0.25
2019-01-17T01:41:56.634Z,-0.31
2019-01-17T01:43:04.663Z,-0.31
2019-01-17T01:44:12.765Z,-0.25
2019-01-17T01:45:20.759Z,-0.31
2019-01-17T01:46:28.810Z,-0.21
2019-01-17T01:47:36.844Z,-0.25
2019-01-17T01:48:44.935Z,-0.29
2019-01-17T01:49:52.988Z,-0.34
2019-01-17T01:51:01.015Z,-0.26
2019-01-17T01:52:09.052Z,-0.31
2019-01-17T01:53:17.130Z,-0.28
2019-01-17T01:54:25.188Z,-0.31
2019-01-17T01:55:33.224Z,-0.31
2019-01-17T01:56:41.294Z,-0.29
2019-01-17T01:57:49.336Z,-0.18
2019-01-17T01:58:57.401Z,-0.29
2019-01-17T02:00:05.427Z,-0.18
2019-01-17T02:01:13.513Z,-0.21
2019-01-17T02:02:21.538Z,-0.14
2019-01-17T02:03:29.611Z,-0.11
2019-01-17T02:04:37.660Z,-0.07
2019-01-17T02:05:45.698Z,-0.14
2019-01-17T02:06:53.751Z,-0.08
2019-01-17T02:08:01.782Z,-0.07
2019-01-17T02:09:09.885Z,-0.14
2019-01-17T02:10:17.911Z,-0.08
2019-01-17T02:11:25.967Z,-0.04
2019-01-17T02:12:34.010Z,-0.08
2019-01-17T02:13:42.135Z,0.07
2019-01-17T02:14:50.121Z,0.07
2019-01-17T02:15:58.152Z,0.02
2019-01-17T02:17:06.233Z,0.04
2019-01-17T02:18:14.274Z,-0.14
2019-01-17T02:19:22.328Z,-0.07
2019-01-17T02:20:30.374Z,0.03
2019-01-17T02:21:38.443Z,0.11
2019-01-17T02:22:46.480Z,0.11
2019-01-17T02:23:54.524Z,0.10
2019-01-17T02:25:02.612Z,0.15
2019-01-17T02:26:10.662Z,0.18
2019-01-17T02:27:18.677Z,0.13
2019-01-17T02:28:26.743Z,0.24
2019-01-17T02:29:34.805Z,0.20
2019-01-17T02:30:42.843Z,0.29
2019-01-17T02:31:50.885Z,0.20
2019-01-17T02:32:58.947Z,0.23
2019-01-17T02:34:07.019Z,0.24
2019-01-17T02:35:15.058Z,0.23
2019-01-17T02:36:23.117Z,0.15
2019-01-17T02:37:31.146Z,0.10
2019-01-17T02:38:39.210Z,0.24
2019-01-17T02:39:47.261Z,0.11
2019-01-17T02:40:55.316Z,0.07
2019-01-17T02:42:03.366Z,0.14
2019-01-17T02:43:11.422Z,0.13
2019-01-17T02:44:19.486Z,0.10
2019-01-17T02:45:27.526Z,0.17
2019-01-17T02:46:35.596Z,0.13
2019-01-17T02:47:43.635Z,0.17
2019-01-17T02:48:51.695Z,0.17
2019-01-17T02:49:59.763Z,0.20
2019-01-17T02:51:07.798Z,0.20
2019-01-17T02:52:15.837Z,0.15
2019-01-17T02:53:23.912Z,0.20
2019-01-17T02:54:35.663Z,0.20
2019-01-17T02:55:40.004Z,0.23
2019-01-17T02:56:48.054Z,0.24
2019-01-17T02:57:56.115Z,0.24
2019-01-17T02:59:04.176Z,0.20
2019-01-17T03:00:12.211Z,0.26
2019-01-17T03:01:20.262Z,0.31
2019-01-17T03:02:28.324Z,0.23
2019-01-17T03:03:36.357Z,0.28
2019-01-17T03:04:44.431Z,0.24
2019-01-17T03:05:52.488Z,0.32
2019-01-17T03:07:00.495Z,0.35
2019-01-17T03:08:08.571Z,0.35
2019-01-17T03:09:16.645Z,0.36
2019-01-17T03:10:24.795Z,0.39
2019-01-17T03:11:32.752Z,0.41
2019-01-17T03:12:40.760Z,0.41
2019-01-17T03:13:48.830Z,0.47
2019-01-17T03:14:56.876Z,0.42
2019-01-17T03:16:04.926Z,0.47
2019-01-17T03:17:12.986Z,0.47
2019-01-17T03:18:21.031Z,0.49
2019-01-17T03:19:29.100Z,0.49
2019-01-17T03:20:37.158Z,0.41
2019-01-17T03:21:45.213Z,0.44
2019-01-17T03:22:53.255Z,0.36
2019-01-17T03:24:01.298Z,0.38
2019-01-17T03:25:09.379Z,0.29
2019-01-17T03:26:17.411Z,0.28
2019-01-17T03:27:25.451Z,0.28
2019-01-17T03:28:33.509Z,0.26
2019-01-17T03:29:41.568Z,0.26
2019-01-17T03:30:49.646Z,0.31
2019-01-17T03:31:57.663Z,0.18
2019-01-17T03:33:05.738Z,0.21
2019-01-17T03:34:13.766Z,0.20
2019-01-17T03:35:21.852Z,0.18
2019-01-17T03:36:29.868Z,0.10
2019-01-17T03:37:37.937Z,0.10
2019-01-17T03:38:45.989Z,0.10
2019-01-17T03:39:54.044Z,0.11
2019-01-17T03:41:02.095Z,0.03
2019-01-17T03:42:10.145Z,-0.01
2019-01-17T03:43:18.186Z,0.10
2019-01-17T03:44:26.260Z,0.10
2019-01-17T03:45:34.320Z,0.14
2019-01-17T03:46:42.355Z,0.11
2019-01-17T03:47:50.400Z,0.15
2019-01-17T03:48:58.448Z,0.13
2019-01-17T03:50:06.513Z,0.14
2019-01-17T03:51:14.539Z,0.08
2019-01-17T03:52:22.614Z,0.15
2019-01-17T03:53:30.642Z,0.20
2019-01-17T03:54:38.714Z,0.10
2019-01-17T03:55:46.789Z,0.08
2019-01-17T03:56:54.832Z,0.07
2019-01-17T03:58:02.895Z,0.21
2019-01-17T03:59:10.916Z,0.17
2019-01-17T04:00:18.983Z,0.24
2019-01-17T04:01:27.035Z,0.24
2019-01-17T04:02:35.097Z,0.26
2019-01-17T04:03:43.144Z,0.23
2019-01-17T04:04:51.205Z,0.35
2019-01-17T04:05:59.240Z,0.38
2019-01-17T04:07:07.306Z,0.51
2019-01-17T04:08:15.328Z,0.60
2019-01-17T04:09:23.383Z,0.72
2019-01-17T04:10:31.426Z,0.68
2019-01-17T04:11:39.491Z,0.70
2019-01-17T04:12:47.571Z,0.72
2019-01-17T04:13:55.621Z,0.83
2019-01-17T04:15:03.672Z,0.90
2019-01-17T04:16:11.722Z,0.87
2019-01-17T04:17:19.752Z,0.94
2019-01-17T04:18:27.836Z,0.91
2019-01-17T04:19:35.885Z,0.90
2019-01-17T04:20:43.950Z,1.00
2019-01-17T04:21:51.999Z,0.86
2019-01-17T04:23:00.037Z,0.96
2019-01-17T04:24:08.099Z,0.87
2019-01-17T04:25:16.143Z,0.86
2019-01-17T04:26:24.193Z,0.87
2019-01-17T04:27:32.249Z,0.84
2019-01-17T04:28:40.309Z,0.86
2019-01-17T04:29:48.383Z,0.76
2019-01-17T04:30:56.407Z,0.65
2019-01-17T04:32:04.429Z,0.62
2019-01-17T04:33:12.519Z,0.61
2019-01-17T04:34:20.557Z,0.57
2019-01-17T04:35:28.625Z,0.50
2019-01-17T04:36:36.703Z,0.42
2019-01-17T04:37:44.732Z,0.46
2019-01-17T04:38:52.778Z,0.36
2019-01-17T04:40:00.845Z,0.38
2019-01-17T04:41:08.880Z,0.38
2019-01-17T04:42:16.932Z,0.29
2019-01-17T04:43:25.005Z,0.33
2019-01-17T04:44:33.030Z,0.20
2019-01-17T04:45:41.079Z,0.21
2019-01-17T04:46:49.164Z,0.15
2019-01-17T04:47:57.213Z,0.23
2019-01-17T04:49:05.259Z,0.18
2019-01-17T04:50:13.312Z,0.23
2019-01-17T04:51:21.402Z,0.21
2019-01-17T04:52:29.409Z,0.17
2019-01-17T04:53:37.484Z,0.14
2019-01-17T04:54:45.520Z,0.18
2019-01-17T04:55:53.564Z,0.20
2019-01-17T04:57:01.705Z,0.17
2019-01-17T04:58:09.673Z,0.17
2019-01-17T04:59:17.720Z,0.26
2019-01-17T05:00:25.771Z,0.26
2019-01-17T05:01:33.841Z,0.29
2019-01-17T05:02:41.884Z,0.41
2019-01-17T05:03:49.937Z,0.31
2019-01-17T05:04:57.965Z,0.38
2019-01-17T05:06:06.045Z,0.44
2019-01-17T05:07:14.089Z,0.44
2019-01-17T05:08:22.153Z,0.44
2019-01-17T05:09:30.204Z,0.51
2019-01-17T05:10:38.252Z,0.50
2019-01-17T05:11:46.325Z,0.51
2019-01-17T05:12:54.362Z,0.47
2019-01-17T05:14:02.419Z,0.49
2019-01-17T05:15:10.459Z,0.42
2019-01-17T05:16:18.519Z,0.47
2019-01-17T05:17:26.574Z,0.41
2019-01-17T05:18:34.638Z,0.50
2019-01-17T05:19:42.700Z,0.51
2019-01-17T05:20:50.737Z,0.51
2019-01-17T05:21:58.798Z,0.50
2019-01-17T05:23:06.940Z,0.50
2019-01-17T05:24:14.899Z,0.49
2019-01-17T05:25:22.929Z,0.49
2019-01-17T05:26:30.968Z,0.41
2019-01-17T05:27:39.056Z,0.47
2019-01-17T05:28:47.082Z,0.50
2019-01-17T05:29:55.148Z,0.50
2019-01-17T05:31:03.228Z,0.44
2019-01-17T05:32:11.991Z,0.42
2019-01-17T05:33:19.310Z,0.44
2019-01-17T05:34:27.435Z,0.41
2019-01-17T05:35:35.430Z,0.35
2019-01-17T05:36:43.769Z,0.36
2019-01-17T05:37:51.568Z,0.28
2019-01-17T05:38:59.599Z,0.26
2019-01-17T05:40:07.639Z,0.26
2019-01-17T05:41:15.695Z,0.23
2019-01-17T05:42:23.729Z,0.18
2019-01-17T05:43:31.810Z,0.23
2019-01-17T05:44:39.860Z,0.14
2019-01-17T05:45:47.920Z,0.18
2019-01-17T05:46:55.969Z,0.14
2019-01-17T05:48:04.059Z,0.08
2019-01-17T05:49:12.051Z,0.13
2019-01-17T05:50:20.163Z,0.08
2019-01-17T05:51:28.236Z,0.00
2019-01-17T05:52:36.420Z,-0.07
2019-01-17T05:53:44.290Z,0.10
2019-01-17T05:54:52.334Z,0.02
2019-01-17T05:56:00.396Z,-0.11
2019-01-17T05:57:08.413Z,-0.11
2019-01-17T05:58:16.494Z,-0.10
2019-01-17T05:59:24.538Z,-0.11
2019-01-17T06:00:32.598Z,-0.11
2019-01-17T06:01:40.622Z,-0.10
2019-01-17T06:02:48.683Z,-0.16
2019-01-17T06:03:56.763Z,-0.10
2019-01-17T06:05:04.791Z,-0.14
2019-01-17T06:06:12.841Z,-0.11
2019-01-17T06:07:20.915Z,-0.14
2019-01-17T06:08:28.950Z,-0.15
2019-01-17T06:09:37.046Z,-0.21
2019-01-17T06:10:45.152Z,-0.16
2019-01-17T06:11:53.106Z,-0.15
2019-01-17T06:13:01.134Z,-0.10
2019-01-17T06:14:09.713Z,-0.15
2019-01-17T06:15:17.266Z,-0.07
2019-01-17T06:16:25.325Z,-0.08
2019-01-17T06:17:33.387Z,-0.07
2019-01-17T06:18:41.441Z,-0.10
2019-01-17T06:19:49.501Z,-0.10
2019-01-17T06:20:57.531Z,0.04
2019-01-17T06:22:05.599Z,0.13
2019-01-17T06:23:13.637Z,0.18
2019-01-17T06:24:21.682Z,0.14
2019-01-17T06:25:29.751Z,0.14
2019-01-17T06:26:37.807Z,0.23
2019-01-17T06:27:45.844Z,0.35
2019-01-17T06:28:53.877Z,0.47
2019-01-17T06:30:01.943Z,0.53
2019-01-17T06:31:10.014Z,0.60
2019-01-17T06:32:18.072Z,0.68
2019-01-17T06:33:26.125Z,0.78
2019-01-17T06:34:34.167Z,0.66
2019-01-17T06:35:42.233Z,0.78
2019-01-17T06:36:50.293Z,0.84
2019-01-17T06:37:58.333Z,0.94
2019-01-17T06:39:06.405Z,0.90
2019-01-17T06:40:14.446Z,1.09
2019-01-17T06:41:22.494Z,1.00
2019-01-17T06:42:30.526Z,1.15
2019-01-17T06:43:38.592Z,1.14
2019-01-17T06:44:46.643Z,1.22
2019-01-17T06:45:54.707Z,1.26
2019-01-17T06:47:02.752Z,1.24
2019-01-17T06:48:10.827Z,1.33
2019-01-17T06:49:18.855Z,1.37
2019-01-17T06:50:26.922Z,1.47
2019-01-17T06:51:34.963Z,1.58
2019-01-17T06:52:43.034Z,1.58
2019-01-17T06:53:51.051Z,1.60
2019-01-17T06:54:59.128Z,1.68
2019-01-17T06:56:07.189Z,1.79
2019-01-17T06:57:15.250Z,1.83
2019-01-17T06:58:23.275Z,1.83
2019-01-17T06:59:31.378Z,1.87
2019-01-17T07:00:39.395Z,1.84
2019-01-17T07:01:47.468Z,2.05
2019-01-17T07:02:55.535Z,1.87
2019-01-17T07:04:03.573Z,2.07
2019-01-17T07:05:11.590Z,2.09
2019-01-17T07:06:19.662Z,2.17
2019-01-17T07:07:27.714Z,2.17
2019-01-17T07:08:35.798Z,2.18
2019-01-17T07:09:43.832Z,2.18
2019-01-17T07:10:51.888Z,2.30
2019-01-17T07:11:59.939Z,2.28
2019-01-17T07:13:08.020Z,2.31
2019-01-17T07:14:16.052Z,2.34
2019-01-17T07:15:24.094Z,2.27
2019-01-17T07:16:32.150Z,2.38
2019-01-17T07:17:40.210Z,2.56
2019-01-17T07:18:48.261Z,2.43
2019-01-17T07:19:56.303Z,2.49
2019-01-17T07:21:04.348Z,2.52
2019-01-17T07:22:12.435Z,2.57
2019-01-17T07:23:20.475Z,2.60
2019-01-17T07:24:28.511Z,2.77
2019-01-17T07:25:40.955Z,2.72
2019-01-17T07:26:44.624Z,2.77
2019-01-17T07:27:52.691Z,2.84
2019-01-17T07:29:00.719Z,2.77
2019-01-17T07:30:08.813Z,2.72
2019-01-17T07:31:16.849Z,2.85
2019-01-17T07:32:24.889Z,2.78
2019-01-17T07:33:32.949Z,2.81
2019-01-17T07:34:41.029Z,2.72
2019-01-17T07:35:49.073Z,2.90
2019-01-17T07:36:57.115Z,2.85
2019-01-17T07:38:05.189Z,2.81
2019-01-17T07:39:13.219Z,2.85
2019-01-17T07:40:21.282Z,2.93
2019-01-17T07:41:29.338Z,2.97
2019-01-17T07:42:37.378Z,2.92
2019-01-17T07:43:45.458Z,2.92
2019-01-17T07:44:53.503Z,2.92
2019-01-17T07:46:01.557Z,3.13
2019-01-17T07:47:09.607Z,3.13
2019-01-17T07:48:17.653Z,3.17
2019-01-17T07:49:25.749Z,3.10
2019-01-17T07:50:33.841Z,3.23
2019-01-17T07:51:41.880Z,3.23
2019-01-17T07:52:49.885Z,3.35
2019-01-17T07:53:57.989Z,3.35
2019-01-17T07:55:06.000Z,3.42
2019-01-17T07:56:14.084Z,3.42
2019-01-17T07:57:22.119Z,3.54
2019-01-17T07:58:30.245Z,3.50
2019-01-17T07:59:38.222Z,3.60
2019-01-17T08:00:46.272Z,3.70
2019-01-17T08:01:54.314Z,3.78
2019-01-17T08:03:02.440Z,3.73
2019-01-17T08:04:10.449Z,3.78
2019-01-17T08:05:18.535Z,3.79
2019-01-17T08:06:26.526Z,3.78
2019-01-17T08:07:34.580Z,3.86
2019-01-17T08:08:42.725Z,3.91
2019-01-17T08:09:50.704Z,3.91
2019-01-17T08:10:58.764Z,3.90
2019-01-17T08:12:06.814Z,3.88
2019-01-17T08:13:14.865Z,3.98
2019-01-17T08:14:22.917Z,3.97
2019-01-17T08:15:30.976Z,4.02
2019-01-17T08:16:39.037Z,3.98
2019-01-17T08:17:47.083Z,3.93
2019-01-17T08:18:55.173Z,3.96
2019-01-17T08:20:03.212Z,3.93
2019-01-17T08:21:11.264Z,3.96
2019-01-17T08:22:19.304Z,3.94
2019-01-17T08:23:27.413Z,4.00
2019-01-17T08:24:35.423Z,4.02
2019-01-17T08:25:43.462Z,4.05
2019-01-17T08:26:51.520Z,4.08
2019-01-17T08:27:59.607Z,4.11
2019-01-17T08:29:07.635Z,4.20
2019-01-17T08:30:15.694Z,4.16
2019-01-17T08:31:23.735Z,4.12
2019-01-17T08:32:31.811Z,4.15
2019-01-17T08:33:39.904Z,4.20
2019-01-17T08:34:47.931Z,4.23
2019-01-17T08:35:55.983Z,4.20
2019-01-17T08:37:04.029Z,4.16
2019-01-17T08:38:12.079Z,4.24
2019-01-17T08:39:20.156Z,4.29
2019-01-17T08:40:28.202Z,4.34
2019-01-17T08:41:36.259Z,4.41
2019-01-17T08:42:44.316Z,4.40
2019-01-17T08:43:52.379Z,4.45
2019-01-17T08:45:02.699Z,4.47
2019-01-17T08:46:08.487Z,4.42
2019-01-17T08:47:16.536Z,4.60
2019-01-17T08:48:24.594Z,4.60
2019-01-17T08:49:32.654Z,4.59
2019-01-17T08:50:40.684Z,4.73
2019-01-17T08:51:48.752Z,4.73
2019-01-17T08:52:56.838Z,4.72
2019-01-17T08:54:04.858Z,4.89
2019-01-17T08:55:12.927Z,4.85
2019-01-17T08:56:20.988Z,4.78
2019-01-17T08:57:29.028Z,4.70
2019-01-17T08:58:37.099Z,4.80
2019-01-17T08:59:45.151Z,4.82
2019-01-17T09:00:53.198Z,4.78
2019-01-17T09:02:01.257Z,4.82
2019-01-17T09:03:09.325Z,4.82
2019-01-17T09:04:17.375Z,4.85
2019-01-17T09:05:25.406Z,4.86
2019-01-17T09:06:33.505Z,4.91
2019-01-17T09:07:41.569Z,4.91
2019-01-17T09:08:49.589Z,4.85
2019-01-17T09:09:57.661Z,4.96
2019-01-17T09:11:05.716Z,4.99
2019-01-17T09:12:13.775Z,4.99
2019-01-17T09:13:21.855Z,5.00
2019-01-17T09:14:29.883Z,5.00
2019-01-17T09:15:37.941Z,5.02
2019-01-17T09:16:46.018Z,5.04
2019-01-17T09:17:54.062Z,5.04
2019-01-17T09:19:02.115Z,5.06
2019-01-17T09:20:10.167Z,4.99
2019-01-17T09:21:18.232Z,5.12
2019-01-17T09:22:26.305Z,5.15
2019-01-17T09:23:34.319Z,5.12
2019-01-17T09:24:42.387Z,5.12
2019-01-17T09:25:50.450Z,5.06
2019-01-17T09:26:58.500Z,5.09
2019-01-17T09:28:06.586Z,5.13
2019-01-17T09:29:14.634Z,5.10
2019-01-17T09:30:22.671Z,5.17
2019-01-17T09:31:30.721Z,5.17
2019-01-17T09:32:38.807Z,5.21
2019-01-17T09:33:46.858Z,5.20
2019-01-17T09:34:54.898Z,5.17
2019-01-17T09:36:02.948Z,5.24
2019-01-17T09:37:11.012Z,5.25
2019-01-17T09:38:19.078Z,5.36
2019-01-17T09:39:27.126Z,5.28
2019-01-17T09:40:35.190Z,5.35
2019-01-17T09:41:43.255Z,5.38
2019-01-17T09:42:51.284Z,5.38
2019-01-17T09:43:59.361Z,5.45
2019-01-17T09:45:07.407Z,5.48
2019-01-17T09:46:15.484Z,5.49
2019-01-17T09:47:23.520Z,5.48
2019-01-17T09:48:31.583Z,5.48
2019-01-17T09:49:39.639Z,5.45
2019-01-17T09:50:47.693Z,5.51
2019-01-17T09:51:55.746Z,5.43
2019-01-17T09:53:03.826Z,5.48
2019-01-17T09:54:11.874Z,5.49
2019-01-17T09:55:19.926Z,5.53
2019-01-17T09:56:27.990Z,5.61
2019-01-17T09:57:36.053Z,5.51
2019-01-17T09:58:44.108Z,5.45
2019-01-17T09:59:52.165Z,5.51
2019-01-17T10:01:00.213Z,5.48
2019-01-17T10:02:08.274Z,5.43
2019-01-17T10:03:16.332Z,5.42
2019-01-17T10:04:26.527Z,5.40
2019-01-17T10:05:32.444Z,5.36
2019-01-17T10:06:40.550Z,5.30
2019-01-17T10:07:48.554Z,5.31
2019-01-17T10:08:56.616Z,5.31
2019-01-17T10:10:04.668Z,5.35
2019-01-17T10:11:12.718Z,5.36
2019-01-17T10:12:20.762Z,5.43
2019-01-17T10:13:32.078Z,5.45
2019-01-17T10:14:36.909Z,5.36
2019-01-17T10:15:45.105Z,5.46
2019-01-17T10:16:53.025Z,5.40
2019-01-17T10:18:01.108Z,5.42
2019-01-17T10:19:09.116Z,5.42
2019-01-17T10:20:17.189Z,5.40
2019-01-17T10:21:25.234Z,5.51
2019-01-17T10:22:33.284Z,5.51
2019-01-17T10:23:41.352Z,5.54
2019-01-17T10:24:49.401Z,5.46
2019-01-17T10:25:57.480Z,5.49
2019-01-17T10:27:05.521Z,5.58
2019-01-17T10:28:13.580Z,5.56
2019-01-17T10:29:21.641Z,5.53
2019-01-17T10:30:29.712Z,5.61
2019-01-17T10:31:37.749Z,5.49
2019-01-17T10:32:45.816Z,5.63
2019-01-17T10:33:53.881Z,5.61
2019-01-17T10:35:01.936Z,5.64
2019-01-17T10:36:09.963Z,5.64
2019-01-17T10:37:18.039Z,5.74
2019-01-17T10:38:26.104Z,5.75
2019-01-17T10:39:34.151Z,5.76
2019-01-17T10:40:42.209Z,5.79
2019-01-17T10:41:50.279Z,5.85
2019-01-17T10:42:58.321Z,5.96
2019-01-17T10:44:06.384Z,5.93
2019-01-17T10:45:14.422Z,5.89
2019-01-17T10:46:22.493Z,5.97
2019-01-17T10:47:30.535Z,5.89
2019-01-17T10:48:38.618Z,6.04
2019-01-17T10:49:46.672Z,6.01
2019-01-17T10:50:54.719Z,6.11
2019-01-17T10:52:02.787Z,6.15
2019-01-17T10:53:10.803Z,6.18
2019-01-17T10:54:18.902Z,6.27
2019-01-17T10:55:26.941Z,6.12
2019-01-17T10:56:41.015Z,6.30
2019-01-17T10:57:43.058Z,6.18
2019-01-17T10:58:51.150Z,6.21
2019-01-17T10:59:59.200Z,6.12
2019-01-17T11:01:07.246Z,6.12
2019-01-17T11:02:15.303Z,6.28
2019-01-17T11:03:23.367Z,6.27
2019-01-17T11:04:31.384Z,6.36
2019-01-17T11:05:39.475Z,6.36
2019-01-17T11:06:47.527Z,6.33
2019-01-17T11:07:55.591Z,6.38
2019-01-17T11:09:03.655Z,6.36
2019-01-17T11:10:11.686Z,6.34
2019-01-17T11:11:19.759Z,6.28
2019-01-17T11:12:27.824Z,6.34
2019-01-17T11:13:35.869Z,6.28
2019-01-17T11:14:43.953Z,6.34
2019-01-17T11:15:51.980Z,6.34
2019-01-17T11:17:00.055Z,6.30
2019-01-17T11:18:08.118Z,6.40
2019-01-17T11:19:16.183Z,6.38
2019-01-17T11:20:24.231Z,6.41
2019-01-17T11:21:32.280Z,6.38
2019-01-17T11:22:40.342Z,6.37
2019-01-17T11:23:48.402Z,6.41
2019-01-17T11:24:56.453Z,6.41
2019-01-17T11:26:04.527Z,6.46
2019-01-17T11:27:12.566Z,6.51
2019-01-17T11:28:20.641Z,6.48
2019-01-17T11:29:28.686Z,6.48
2019-01-17T11:30:36.730Z,6.37
2019-01-17T11:31:44.813Z,6.33
2019-01-17T11:32:52.847Z,6.41
2019-01-17T11:34:00.926Z,6.46
2019-01-17T11:35:08.991Z,6.40
2019-01-17T11:36:17.029Z,6.52
2019-01-17T11:37:25.072Z,6.49
2019-01-17T11:38:33.129Z,6.70
2019-01-17T11:39:41.220Z,6.69
2019-01-17T11:40:49.266Z,6.73
2019-01-17T11:41:57.316Z,6.79
2019-01-17T11:43:05.409Z,6.70
2019-01-17T11:44:13.446Z,6.69
2019-01-17T11:45:21.497Z,6.69
2019-01-17T11:46:29.550Z,6.62
2019-01-17T11:47:37.611Z,6.66
2019-01-17T11:48:45.676Z,6.58
2019-01-17T11:49:53.739Z,6.44
2019-01-17T11:51:01.796Z,6.49
2019-01-17T11:52:09.852Z,6.46
2019-01-17T11:53:17.901Z,6.46
2019-01-17T11:54:25.978Z,6.41
2019-01-17T11:55:34.031Z,6.27
2019-01-17T11:56:42.087Z,6.11
2019-01-17T11:57:50.137Z,6.15
2019-01-17T11:59:00.023Z,6.08
2019-01-17T12:00:06.272Z,6.15
2019-01-17T12:01:14.307Z,6.17
2019-01-17T12:02:22.368Z,6.11
2019-01-17T12:03:30.436Z,6.12
2019-01-17T12:04:38.488Z,6.04
2019-01-17T12:05:46.538Z,6.06
2019-01-17T12:06:54.601Z,5.96
2019-01-17T12:08:02.657Z,6.03
2019-01-17T12:09:10.725Z,6.01
2019-01-17T12:10:18.769Z,5.99
2019-01-17T12:11:26.832Z,5.96
2019-01-17T12:12:34.911Z,5.97
2019-01-17T12:13:42.949Z,5.94
2019-01-17T12:14:51.003Z,5.85
2019-01-17T12:15:59.039Z,5.86
2019-01-17T12:17:07.116Z,5.91
2019-01-17T12:18:15.214Z,5.81
2019-01-17T12:19:23.209Z,5.89
2019-01-17T12:20:31.287Z,5.91
2019-01-17T12:21:39.337Z,5.94
2019-01-17T12:22:47.423Z,5.91
2019-01-17T12:23:55.466Z,5.86
2019-01-17T12:25:03.523Z,5.72
2019-01-17T12:26:11.586Z,5.68
2019-01-17T12:27:19.641Z,5.78
2019-01-17T12:28:27.718Z,5.82
2019-01-17T12:29:35.751Z,5.75
2019-01-17T12:30:43.791Z,5.71
2019-01-17T12:31:51.862Z,5.75
2019-01-17T12:32:59.929Z,5.83
2019-01-17T12:34:07.963Z,5.81
2019-01-17T12:35:16.026Z,5.72
2019-01-17T12:36:24.098Z,5.74
2019-01-17T12:37:32.204Z,5.75
2019-01-17T12:38:40.203Z,5.67
2019-01-17T12:39:48.315Z,5.74
2019-01-17T12:40:56.322Z,5.64
2019-01-17T12:42:04.376Z,5.72
2019-01-17T12:43:12.424Z,5.60
2019-01-17T12:44:20.607Z,5.68
2019-01-17T12:45:28.537Z,5.64
2019-01-17T12:46:36.626Z,5.64
2019-01-17T12:47:44.653Z,5.68
2019-01-17T12:48:52.712Z,5.68
2019-01-17T12:50:00.778Z,5.67
2019-01-17T12:51:08.827Z,5.75
2019-01-17T12:52:16.898Z,5.67
2019-01-17T12:53:24.934Z,5.68
2019-01-17T12:54:33.062Z,5.64
2019-01-17T12:55:41.049Z,5.61
2019-01-17T12:56:53.953Z,5.60
2019-01-17T12:57:57.217Z,5.60
2019-01-17T12:59:05.229Z,5.53
2019-01-17T13:00:13.334Z,5.57
2019-01-17T13:01:21.322Z,5.56
2019-01-17T13:02:29.393Z,5.46
2019-01-17T13:03:37.474Z,5.53
2019-01-17T13:04:45.505Z,5.42
2019-01-17T13:05:53.594Z,5.49
2019-01-17T13:07:01.628Z,5.42
2019-01-17T13:08:09.678Z,5.45
2019-01-17T13:09:17.779Z,5.33
2019-01-17T13:10:25.791Z,5.36
2019-01-17T13:11:33.862Z,5.33
2019-01-17T13:12:41.906Z,5.45
2019-01-17T13:13:49.993Z,5.48
2019-01-17T13:14:58.014Z,5.48
2019-01-17T13:16:06.080Z,5.28
2019-01-17T13:17:14.139Z,5.38
2019-01-17T13:18:22.213Z,5.36
2019-01-17T13:19:30.250Z,5.31
2019-01-17T13:20:38.299Z,5.28
2019-01-17T13:21:46.382Z,5.30
2019-01-17T13:22:54.418Z,5.31
2019-01-17T13:24:02.482Z,5.38
2019-01-17T13:25:10.547Z,5.33
2019-01-17T13:26:18.594Z,5.28
2019-01-17T13:27:26.641Z,5.28
2019-01-17T13:28:34.688Z,5.31
2019-01-17T13:29:42.773Z,5.31
2019-01-17T13:30:50.827Z,5.27
2019-01-17T13:31:58.886Z,5.33
2019-01-17T13:33:06.943Z,5.39
2019-01-17T13:34:14.981Z,5.33
2019-01-17T13:35:23.042Z,5.38
2019-01-17T13:36:31.106Z,5.33
2019-01-17T13:37:39.159Z,5.27
2019-01-17T13:38:47.447Z,5.49
2019-01-17T13:39:55.276Z,5.31
2019-01-17T13:41:03.318Z,5.31
2019-01-17T13:42:11.371Z,5.39
2019-01-17T13:43:19.423Z,5.35
2019-01-17T13:44:27.496Z,5.31
2019-01-17T13:45:35.551Z,5.30
2019-01-17T13:46:43.605Z,5.30
2019-01-17T13:47:51.676Z,5.36
2019-01-17T13:48:59.713Z,5.35
2019-01-17T13:50:07.782Z,5.31
2019-01-17T13:51:15.828Z,5.31
2019-01-17T13:52:23.893Z,5.35
2019-01-17T13:53:31.960Z,5.30
2019-01-17T13:54:40.011Z,5.22
2019-01-17T13:55:48.051Z,5.35
2019-01-17T13:56:56.129Z,5.38
2019-01-17T13:58:04.176Z,5.30
2019-01-17T13:59:12.240Z,5.30
2019-01-17T14:00:20.319Z,5.36
2019-01-17T14:01:28.330Z,5.38
2019-01-17T14:02:36.414Z,5.31
2019-01-17T14:03:44.452Z,5.27
2019-01-17T14:04:52.511Z,5.35
2019-01-17T14:06:00.577Z,5.27
2019-01-17T14:07:08.629Z,5.33
2019-01-17T14:08:16.700Z,5.27
2019-01-17T14:09:24.740Z,5.18
2019-01-17T14:10:32.796Z,5.21
2019-01-17T14:11:40.880Z,5.22
2019-01-17T14:12:48.918Z,5.25
2019-01-17T14:13:56.972Z,5.22
2019-01-17T14:15:05.020Z,5.22
2019-01-17T14:16:13.081Z,5.20
2019-01-17T14:17:21.142Z,5.13
2019-01-17T14:18:29.218Z,5.10
2019-01-17T14:19:37.331Z,5.12
2019-01-17T14:20:45.317Z,5.07
2019-01-17T14:21:53.368Z,5.00
2019-01-17T14:23:01.403Z,5.06
2019-01-17T14:24:09.484Z,5.04
2019-01-17T14:25:17.532Z,5.06
2019-01-17T14:26:25.584Z,5.04
2019-01-17T14:27:33.640Z,5.06
2019-01-17T14:28:41.681Z,5.07
2019-01-17T14:29:49.783Z,5.00
2019-01-17T14:30:57.809Z,5.02
2019-01-17T14:32:05.863Z,4.94
2019-01-17T14:33:13.932Z,4.92
2019-01-17T14:34:21.982Z,4.94
2019-01-17T14:35:30.031Z,4.91
2019-01-17T14:36:38.078Z,4.84
2019-01-17T14:37:46.147Z,4.80
2019-01-17T14:38:54.195Z,4.84
2019-01-17T14:40:02.266Z,4.84
2019-01-17T14:41:10.307Z,4.86
2019-01-17T14:42:18.403Z,4.88
2019-01-17T14:43:26.476Z,4.82
2019-01-17T14:44:34.509Z,4.86
2019-01-17T14:45:42.551Z,4.75
2019-01-17T14:46:50.625Z,4.77
2019-01-17T14:47:58.666Z,4.72
2019-01-17T14:49:06.709Z,4.77
2019-01-17T14:50:14.769Z,4.85
2019-01-17T14:51:22.826Z,4.70
2019-01-17T14:52:30.864Z,4.78
2019-01-17T14:53:38.946Z,4.75
2019-01-17T14:54:47.019Z,4.77
2019-01-17T14:55:55.045Z,4.77
2019-01-17T14:57:03.106Z,4.75
2019-01-17T14:58:11.123Z,4.70
2019-01-17T14:59:19.226Z,4.77
2019-01-17T15:00:27.281Z,4.84